sensor_id;sensor_type;location;lat;lon;timestamp;P1;durP1;ratioP1;P2;durP2;ratioP2
38465;SDS011;24244;51.950;5.902;2024-02-14T00:00:53;5.22;;;3.40;;
38465;SDS011;24244;51.950;5.902;2024-02-14T00:03:21;4.80;;;2.65;;
38465;SDS011;24244;51.950;5.902;2024-02-14T00:05:51;4.65;;;2.97;;
38465;SDS011;24244;51.950;5.902;2024-02-14T00:08:19;5.65;;;2.63;;
38465;SDS011;24244;51.950;5.902;2024-02-14T00:10:47;5.85;;;3.17;;
38465;SDS011;24244;51.950;5.902;2024-02-14T00:13:15;7.10;;;3.80;;
38465;SDS011;24244;51.950;5.902;2024-02-14T00:15:44;6.22;;;3.10;;
38465;SDS011;24244;51.950;5.902;2024-02-14T00:18:12;6.68;;;3.15;;
38465;SDS011;24244;51.950;5.902;2024-02-14T00:20:40;6.07;;;2.97;;
38465;SDS011;24244;51.950;5.902;2024-02-14T00:23:08;4.80;;;3.58;;
38465;SDS011;24244;51.950;5.902;2024-02-14T00:25:35;6.10;;;3.50;;
38465;SDS011;24244;51.950;5.902;2024-02-14T00:28:02;5.05;;;3.85;;
38465;SDS011;24244;51.950;5.902;2024-02-14T00:30:30;6.18;;;3.72;;
38465;SDS011;24244;51.950;5.902;2024-02-14T00:32:56;6.38;;;3.35;;
38465;SDS011;24244;51.950;5.902;2024-02-14T00:35:23;6.38;;;2.90;;
38465;SDS011;24244;51.950;5.902;2024-02-14T00:37:50;5.30;;;3.22;;
38465;SDS011;24244;51.950;5.902;2024-02-14T00:40:19;6.05;;;4.20;;
38465;SDS011;24244;51.950;5.902;2024-02-14T00:42:46;6.97;;;3.65;;
38465;SDS011;24244;51.950;5.902;2024-02-14T00:45:13;6.18;;;4.72;;
38465;SDS011;24244;51.950;5.902;2024-02-14T00:47:40;5.50;;;3.58;;
38465;SDS011;24244;51.950;5.902;2024-02-14T00:50:07;7.40;;;3.50;;
38465;SDS011;24244;51.950;5.902;2024-02-14T00:52:34;6.05;;;3.80;;
38465;SDS011;24244;51.950;5.902;2024-02-14T00:55:01;6.13;;;3.42;;
38465;SDS011;24244;51.950;5.902;2024-02-14T00:57:31;6.40;;;4.35;;
38465;SDS011;24244;51.950;5.902;2024-02-14T00:59:59;4.97;;;3.53;;
38465;SDS011;24244;51.950;5.902;2024-02-14T01:02:26;5.35;;;3.55;;
38465;SDS011;24244;51.950;5.902;2024-02-14T01:04:53;7.40;;;4.05;;
38465;SDS011;24244;51.950;5.902;2024-02-14T01:07:20;5.90;;;3.35;;
38465;SDS011;24244;51.950;5.902;2024-02-14T01:09:47;6.05;;;4.65;;
38465;SDS011;24244;51.950;5.902;2024-02-14T01:12:14;5.32;;;4.00;;
38465;SDS011;24244;51.950;5.902;2024-02-14T01:14:42;8.13;;;3.90;;
38465;SDS011;24244;51.950;5.902;2024-02-14T01:17:09;6.80;;;3.80;;
38465;SDS011;24244;51.950;5.902;2024-02-14T01:19:36;6.20;;;4.25;;
38465;SDS011;24244;51.950;5.902;2024-02-14T01:22:03;5.82;;;4.30;;
38465;SDS011;24244;51.950;5.902;2024-02-14T01:24:30;7.68;;;5.18;;
38465;SDS011;24244;51.950;5.902;2024-02-14T01:26:57;7.35;;;4.20;;
38465;SDS011;24244;51.950;5.902;2024-02-14T01:29:24;7.80;;;4.60;;
38465;SDS011;24244;51.950;5.902;2024-02-14T01:31:52;6.75;;;3.95;;
38465;SDS011;24244;51.950;5.902;2024-02-14T01:34:19;7.05;;;4.18;;
38465;SDS011;24244;51.950;5.902;2024-02-14T01:36:47;7.22;;;4.13;;
38465;SDS011;24244;51.950;5.902;2024-02-14T01:39:14;7.22;;;4.15;;
38465;SDS011;24244;51.950;5.902;2024-02-14T01:41:43;8.20;;;3.95;;
38465;SDS011;24244;51.950;5.902;2024-02-14T01:44:12;6.07;;;3.83;;
38465;SDS011;24244;51.950;5.902;2024-02-14T01:46:39;6.53;;;3.78;;
38465;SDS011;24244;51.950;5.902;2024-02-14T01:49:07;8.02;;;5.10;;
38465;SDS011;24244;51.950;5.902;2024-02-14T01:51:34;7.53;;;4.22;;
38465;SDS011;24244;51.950;5.902;2024-02-14T01:54:02;6.07;;;4.22;;
38465;SDS011;24244;51.950;5.902;2024-02-14T01:56:29;8.40;;;4.75;;
38465;SDS011;24244;51.950;5.902;2024-02-14T01:58:58;8.15;;;4.28;;
38465;SDS011;24244;51.950;5.902;2024-02-14T02:01:25;6.93;;;3.85;;
38465;SDS011;24244;51.950;5.902;2024-02-14T02:03:53;7.72;;;4.22;;
38465;SDS011;24244;51.950;5.902;2024-02-14T02:06:21;8.55;;;5.50;;
38465;SDS011;24244;51.950;5.902;2024-02-14T02:08:48;8.65;;;4.20;;
38465;SDS011;24244;51.950;5.902;2024-02-14T02:11:15;8.48;;;4.57;;
38465;SDS011;24244;51.950;5.902;2024-02-14T02:13:42;6.43;;;4.32;;
38465;SDS011;24244;51.950;5.902;2024-02-14T02:16:10;9.05;;;4.90;;
38465;SDS011;24244;51.950;5.902;2024-02-14T02:18:37;6.93;;;4.78;;
38465;SDS011;24244;51.950;5.902;2024-02-14T02:21:04;8.52;;;5.00;;
38465;SDS011;24244;51.950;5.902;2024-02-14T02:23:34;7.95;;;4.00;;
38465;SDS011;24244;51.950;5.902;2024-02-14T02:26:02;7.57;;;4.10;;
38465;SDS011;24244;51.950;5.902;2024-02-14T02:28:29;8.07;;;3.83;;
38465;SDS011;24244;51.950;5.902;2024-02-14T02:30:55;8.07;;;4.50;;
38465;SDS011;24244;51.950;5.902;2024-02-14T02:33:22;8.90;;;4.45;;
38465;SDS011;24244;51.950;5.902;2024-02-14T02:35:49;10.07;;;5.93;;
38465;SDS011;24244;51.950;5.902;2024-02-14T02:38:17;9.68;;;4.70;;
38465;SDS011;24244;51.950;5.902;2024-02-14T02:40:45;6.68;;;4.22;;
38465;SDS011;24244;51.950;5.902;2024-02-14T02:43:12;6.60;;;4.00;;
38465;SDS011;24244;51.950;5.902;2024-02-14T02:45:38;8.55;;;4.20;;
38465;SDS011;24244;51.950;5.902;2024-02-14T02:48:05;8.35;;;4.85;;
38465;SDS011;24244;51.950;5.902;2024-02-14T02:50:33;7.88;;;5.28;;
38465;SDS011;24244;51.950;5.902;2024-02-14T02:53:00;7.90;;;4.85;;
38465;SDS011;24244;51.950;5.902;2024-02-14T02:55:27;8.93;;;4.43;;
38465;SDS011;24244;51.950;5.902;2024-02-14T02:57:55;7.53;;;4.68;;
38465;SDS011;24244;51.950;5.902;2024-02-14T03:00:22;7.97;;;4.90;;
38465;SDS011;24244;51.950;5.902;2024-02-14T03:02:49;6.78;;;3.97;;
38465;SDS011;24244;51.950;5.902;2024-02-14T03:05:16;8.70;;;4.90;;
38465;SDS011;24244;51.950;5.902;2024-02-14T03:07:49;8.10;;;5.07;;
38465;SDS011;24244;51.950;5.902;2024-02-14T03:10:17;9.10;;;5.63;;
38465;SDS011;24244;51.950;5.902;2024-02-14T03:12:45;8.80;;;5.30;;
38465;SDS011;24244;51.950;5.902;2024-02-14T03:15:15;7.63;;;4.63;;
38465;SDS011;24244;51.950;5.902;2024-02-14T03:17:42;9.20;;;5.68;;
38465;SDS011;24244;51.950;5.902;2024-02-14T03:20:10;10.07;;;4.60;;
38465;SDS011;24244;51.950;5.902;2024-02-14T03:22:43;10.02;;;4.70;;
38465;SDS011;24244;51.950;5.902;2024-02-14T03:25:16;7.82;;;4.55;;
38465;SDS011;24244;51.950;5.902;2024-02-14T03:27:43;10.07;;;5.60;;
38465;SDS011;24244;51.950;5.902;2024-02-14T03:30:17;9.23;;;5.15;;
38465;SDS011;24244;51.950;5.902;2024-02-14T03:32:45;10.57;;;5.38;;
38465;SDS011;24244;51.950;5.902;2024-02-14T03:35:12;9.20;;;4.95;;
38465;SDS011;24244;51.950;5.902;2024-02-14T03:37:40;10.25;;;5.05;;
38465;SDS011;24244;51.950;5.902;2024-02-14T03:40:08;9.15;;;5.20;;
38465;SDS011;24244;51.950;5.902;2024-02-14T03:42:36;8.40;;;4.88;;
38465;SDS011;24244;51.950;5.902;2024-02-14T03:45:05;8.88;;;5.32;;
38465;SDS011;24244;51.950;5.902;2024-02-14T03:47:35;10.13;;;5.68;;
38465;SDS011;24244;51.950;5.902;2024-02-14T03:50:07;9.73;;;5.57;;
38465;SDS011;24244;51.950;5.902;2024-02-14T03:52:34;11.02;;;5.22;;
38465;SDS011;24244;51.950;5.902;2024-02-14T03:55:01;11.57;;;5.75;;
38465;SDS011;24244;51.950;5.902;2024-02-14T03:57:29;10.00;;;6.18;;
38465;SDS011;24244;51.950;5.902;2024-02-14T03:59:57;11.10;;;5.45;;
38465;SDS011;24244;51.950;5.902;2024-02-14T04:02:25;9.70;;;6.25;;
38465;SDS011;24244;51.950;5.902;2024-02-14T04:04:56;10.10;;;5.95;;
38465;SDS011;24244;51.950;5.902;2024-02-14T04:07:23;12.55;;;5.50;;
38465;SDS011;24244;51.950;5.902;2024-02-14T04:09:50;10.70;;;5.95;;
38465;SDS011;24244;51.950;5.902;2024-02-14T04:12:17;10.43;;;5.68;;
38465;SDS011;24244;51.950;5.902;2024-02-14T04:14:44;11.77;;;6.00;;
38465;SDS011;24244;51.950;5.902;2024-02-14T04:17:11;11.60;;;5.55;;
38465;SDS011;24244;51.950;5.902;2024-02-14T04:19:39;12.40;;;6.15;;
38465;SDS011;24244;51.950;5.902;2024-02-14T04:22:07;13.73;;;6.80;;
38465;SDS011;24244;51.950;5.902;2024-02-14T04:24:34;12.98;;;7.38;;
38465;SDS011;24244;51.950;5.902;2024-02-14T04:27:02;14.05;;;6.90;;
38465;SDS011;24244;51.950;5.902;2024-02-14T04:29:31;12.50;;;6.70;;
38465;SDS011;24244;51.950;5.902;2024-02-14T04:32:00;11.40;;;6.50;;
38465;SDS011;24244;51.950;5.902;2024-02-14T04:34:27;14.52;;;7.35;;
38465;SDS011;24244;51.950;5.902;2024-02-14T04:36:54;16.17;;;8.00;;
38465;SDS011;24244;51.950;5.902;2024-02-14T04:39:22;11.43;;;6.93;;
38465;SDS011;24244;51.950;5.902;2024-02-14T04:41:49;10.23;;;5.45;;
38465;SDS011;24244;51.950;5.902;2024-02-14T04:44:27;13.23;;;6.40;;
38465;SDS011;24244;51.950;5.902;2024-02-14T04:46:54;11.02;;;6.28;;
38465;SDS011;24244;51.950;5.902;2024-02-14T04:49:22;12.15;;;6.03;;
38465;SDS011;24244;51.950;5.902;2024-02-14T04:51:50;13.07;;;7.18;;
38465;SDS011;24244;51.950;5.902;2024-02-14T04:54:17;14.15;;;6.70;;
38465;SDS011;24244;51.950;5.902;2024-02-14T04:56:45;13.63;;;7.97;;
38465;SDS011;24244;51.950;5.902;2024-02-14T04:59:15;14.77;;;7.15;;
38465;SDS011;24244;51.950;5.902;2024-02-14T05:01:42;17.08;;;7.90;;
38465;SDS011;24244;51.950;5.902;2024-02-14T05:04:09;10.65;;;6.38;;
38465;SDS011;24244;51.950;5.902;2024-02-14T05:06:36;13.85;;;7.18;;
38465;SDS011;24244;51.950;5.902;2024-02-14T05:09:04;12.40;;;7.30;;
38465;SDS011;24244;51.950;5.902;2024-02-14T05:11:32;11.13;;;7.57;;
38465;SDS011;24244;51.950;5.902;2024-02-14T05:14:00;13.82;;;7.78;;
38465;SDS011;24244;51.950;5.902;2024-02-14T05:16:28;12.13;;;7.20;;
38465;SDS011;24244;51.950;5.902;2024-02-14T05:18:55;14.60;;;7.25;;
38465;SDS011;24244;51.950;5.902;2024-02-14T05:21:22;12.45;;;7.47;;
38465;SDS011;24244;51.950;5.902;2024-02-14T05:23:48;11.95;;;7.60;;
38465;SDS011;24244;51.950;5.902;2024-02-14T05:26:16;15.20;;;8.43;;
38465;SDS011;24244;51.950;5.902;2024-02-14T05:28:43;13.38;;;7.07;;
38465;SDS011;24244;51.950;5.902;2024-02-14T05:31:11;12.77;;;6.45;;
38465;SDS011;24244;51.950;5.902;2024-02-14T05:33:38;13.35;;;7.20;;
38465;SDS011;24244;51.950;5.902;2024-02-14T05:36:05;13.32;;;6.47;;
38465;SDS011;24244;51.950;5.902;2024-02-14T05:38:33;15.32;;;7.30;;
38465;SDS011;24244;51.950;5.902;2024-02-14T05:41:00;11.57;;;6.95;;
38465;SDS011;24244;51.950;5.902;2024-02-14T05:43:28;11.98;;;7.15;;
38465;SDS011;24244;51.950;5.902;2024-02-14T05:45:55;17.75;;;9.98;;
38465;SDS011;24244;51.950;5.902;2024-02-14T05:48:23;11.02;;;6.82;;
38465;SDS011;24244;51.950;5.902;2024-02-14T05:50:51;14.57;;;7.47;;
38465;SDS011;24244;51.950;5.902;2024-02-14T05:53:17;17.00;;;8.57;;
38465;SDS011;24244;51.950;5.902;2024-02-14T05:55:44;12.68;;;8.00;;
38465;SDS011;24244;51.950;5.902;2024-02-14T05:58:11;12.25;;;7.60;;
38465;SDS011;24244;51.950;5.902;2024-02-14T06:00:38;14.57;;;7.38;;
38465;SDS011;24244;51.950;5.902;2024-02-14T06:03:06;11.60;;;7.05;;
38465;SDS011;24244;51.950;5.902;2024-02-14T06:05:35;13.93;;;6.88;;
38465;SDS011;24244;51.950;5.902;2024-02-14T06:08:02;12.95;;;6.18;;
38465;SDS011;24244;51.950;5.902;2024-02-14T06:10:29;14.75;;;7.13;;
38465;SDS011;24244;51.950;5.902;2024-02-14T06:12:56;9.52;;;5.72;;
38465;SDS011;24244;51.950;5.902;2024-02-14T06:15:23;11.75;;;6.40;;
38465;SDS011;24244;51.950;5.902;2024-02-14T06:17:50;13.10;;;7.03;;
38465;SDS011;24244;51.950;5.902;2024-02-14T06:20:17;13.18;;;7.32;;
38465;SDS011;24244;51.950;5.902;2024-02-14T06:22:45;12.25;;;7.57;;
38465;SDS011;24244;51.950;5.902;2024-02-14T06:25:26;11.50;;;6.05;;
38465;SDS011;24244;51.950;5.902;2024-02-14T06:27:53;12.98;;;7.63;;
38465;SDS011;24244;51.950;5.902;2024-02-14T06:30:23;11.90;;;6.10;;
38465;SDS011;24244;51.950;5.902;2024-02-14T06:32:53;11.07;;;6.53;;
38465;SDS011;24244;51.950;5.902;2024-02-14T06:35:20;12.18;;;7.53;;
38465;SDS011;24244;51.950;5.902;2024-02-14T06:37:49;13.27;;;6.80;;
38465;SDS011;24244;51.950;5.902;2024-02-14T06:40:28;12.98;;;6.13;;
38465;SDS011;24244;51.950;5.902;2024-02-14T06:42:56;11.32;;;7.15;;
38465;SDS011;24244;51.950;5.902;2024-02-14T06:45:25;13.32;;;7.00;;
38465;SDS011;24244;51.950;5.902;2024-02-14T06:47:52;11.60;;;6.63;;
38465;SDS011;24244;51.950;5.902;2024-02-14T06:50:18;13.52;;;6.72;;
38465;SDS011;24244;51.950;5.902;2024-02-14T06:52:45;13.00;;;7.43;;
38465;SDS011;24244;51.950;5.902;2024-02-14T06:55:13;12.70;;;7.15;;
38465;SDS011;24244;51.950;5.902;2024-02-14T06:57:40;11.13;;;6.40;;
38465;SDS011;24244;51.950;5.902;2024-02-14T07:00:07;12.63;;;6.68;;
38465;SDS011;24244;51.950;5.902;2024-02-14T07:02:35;9.35;;;5.80;;
38465;SDS011;24244;51.950;5.902;2024-02-14T07:05:03;11.82;;;6.40;;
38465;SDS011;24244;51.950;5.902;2024-02-14T07:07:30;11.10;;;6.07;;
38465;SDS011;24244;51.950;5.902;2024-02-14T07:09:57;12.50;;;6.28;;
38465;SDS011;24244;51.950;5.902;2024-02-14T07:12:25;12.00;;;7.05;;
38465;SDS011;24244;51.950;5.902;2024-02-14T07:14:52;10.98;;;7.18;;
38465;SDS011;24244;51.950;5.902;2024-02-14T07:17:19;11.20;;;6.68;;
38465;SDS011;24244;51.950;5.902;2024-02-14T07:19:46;10.88;;;6.05;;
38465;SDS011;24244;51.950;5.902;2024-02-14T07:22:16;10.02;;;6.20;;
38465;SDS011;24244;51.950;5.902;2024-02-14T07:24:45;10.85;;;6.40;;
38465;SDS011;24244;51.950;5.902;2024-02-14T07:27:13;12.43;;;6.57;;
38465;SDS011;24244;51.950;5.902;2024-02-14T07:29:42;11.48;;;6.68;;
38465;SDS011;24244;51.950;5.902;2024-02-14T07:32:10;13.20;;;7.28;;
38465;SDS011;24244;51.950;5.902;2024-02-14T07:34:38;12.02;;;6.22;;
38465;SDS011;24244;51.950;5.902;2024-02-14T07:37:05;12.50;;;6.38;;
38465;SDS011;24244;51.950;5.902;2024-02-14T07:39:32;13.43;;;7.88;;
38465;SDS011;24244;51.950;5.902;2024-02-14T07:42:01;13.30;;;7.82;;
38465;SDS011;24244;51.950;5.902;2024-02-14T07:44:28;12.43;;;7.53;;
38465;SDS011;24244;51.950;5.902;2024-02-14T07:46:57;13.63;;;7.63;;
38465;SDS011;24244;51.950;5.902;2024-02-14T07:49:29;16.70;;;6.63;;
38465;SDS011;24244;51.950;5.902;2024-02-14T07:51:56;14.98;;;7.93;;
38465;SDS011;24244;51.950;5.902;2024-02-14T07:54:23;17.17;;;8.55;;
38465;SDS011;24244;51.950;5.902;2024-02-14T07:56:50;16.33;;;7.50;;
38465;SDS011;24244;51.950;5.902;2024-02-14T07:59:16;15.13;;;7.90;;
38465;SDS011;24244;51.950;5.902;2024-02-14T08:01:43;16.85;;;7.97;;
38465;SDS011;24244;51.950;5.902;2024-02-14T08:04:11;15.70;;;8.00;;
38465;SDS011;24244;51.950;5.902;2024-02-14T08:06:38;15.50;;;8.40;;
38465;SDS011;24244;51.950;5.902;2024-02-14T08:09:05;17.20;;;8.63;;
38465;SDS011;24244;51.950;5.902;2024-02-14T08:11:36;16.33;;;8.02;;
38465;SDS011;24244;51.950;5.902;2024-02-14T08:14:03;16.65;;;8.93;;
38465;SDS011;24244;51.950;5.902;2024-02-14T08:16:30;14.75;;;8.77;;
38465;SDS011;24244;51.950;5.902;2024-02-14T08:18:57;14.18;;;7.97;;
38465;SDS011;24244;51.950;5.902;2024-02-14T08:21:27;16.05;;;7.82;;
38465;SDS011;24244;51.950;5.902;2024-02-14T08:26:27;16.45;;;7.63;;
38465;SDS011;24244;51.950;5.902;2024-02-14T08:28:54;13.15;;;7.85;;
38465;SDS011;24244;51.950;5.902;2024-02-14T08:31:21;14.32;;;8.25;;
38465;SDS011;24244;51.950;5.902;2024-02-14T08:33:48;17.80;;;7.65;;
38465;SDS011;24244;51.950;5.902;2024-02-14T08:36:15;11.25;;;6.60;;
38465;SDS011;24244;51.950;5.902;2024-02-14T08:38:44;11.45;;;6.75;;
38465;SDS011;24244;51.950;5.902;2024-02-14T08:41:11;14.80;;;7.85;;
38465;SDS011;24244;51.950;5.902;2024-02-14T08:43:38;13.95;;;7.18;;
38465;SDS011;24244;51.950;5.902;2024-02-14T08:46:09;12.02;;;7.18;;
38465;SDS011;24244;51.950;5.902;2024-02-14T08:48:36;15.25;;;8.13;;
38465;SDS011;24244;51.950;5.902;2024-02-14T08:51:07;13.18;;;7.15;;
38465;SDS011;24244;51.950;5.902;2024-02-14T08:53:35;12.13;;;7.18;;
38465;SDS011;24244;51.950;5.902;2024-02-14T08:56:04;13.18;;;7.32;;
38465;SDS011;24244;51.950;5.902;2024-02-14T08:58:31;15.13;;;7.55;;
38465;SDS011;24244;51.950;5.902;2024-02-14T09:00:58;11.43;;;6.32;;
38465;SDS011;24244;51.950;5.902;2024-02-14T09:03:39;11.40;;;7.20;;
38465;SDS011;24244;51.950;5.902;2024-02-14T09:06:06;12.48;;;7.55;;
38465;SDS011;24244;51.950;5.902;2024-02-14T09:08:33;12.98;;;7.78;;
38465;SDS011;24244;51.950;5.902;2024-02-14T09:11:00;12.82;;;7.22;;
38465;SDS011;24244;51.950;5.902;2024-02-14T09:13:28;12.93;;;7.68;;
38465;SDS011;24244;51.950;5.902;2024-02-14T09:15:55;11.18;;;6.63;;
38465;SDS011;24244;51.950;5.902;2024-02-14T09:18:22;12.43;;;6.50;;
38465;SDS011;24244;51.950;5.902;2024-02-14T09:20:50;10.82;;;6.43;;
38465;SDS011;24244;51.950;5.902;2024-02-14T09:23:17;10.85;;;6.25;;
38465;SDS011;24244;51.950;5.902;2024-02-14T09:25:48;13.52;;;6.80;;
38465;SDS011;24244;51.950;5.902;2024-02-14T09:28:16;12.45;;;7.28;;
38465;SDS011;24244;51.950;5.902;2024-02-14T09:30:44;11.32;;;5.80;;
38465;SDS011;24244;51.950;5.902;2024-02-14T09:33:10;13.60;;;7.38;;
38465;SDS011;24244;51.950;5.902;2024-02-14T09:35:38;12.73;;;6.05;;
38465;SDS011;24244;51.950;5.902;2024-02-14T09:38:10;12.40;;;6.57;;
38465;SDS011;24244;51.950;5.902;2024-02-14T09:40:39;10.70;;;7.03;;
38465;SDS011;24244;51.950;5.902;2024-02-14T09:43:09;12.23;;;6.40;;
38465;SDS011;24244;51.950;5.902;2024-02-14T09:45:42;14.05;;;7.60;;
38465;SDS011;24244;51.950;5.902;2024-02-14T09:48:10;12.40;;;7.13;;
38465;SDS011;24244;51.950;5.902;2024-02-14T09:50:39;11.52;;;7.13;;
38465;SDS011;24244;51.950;5.902;2024-02-14T09:53:07;13.02;;;7.50;;
38465;SDS011;24244;51.950;5.902;2024-02-14T09:55:36;13.70;;;7.05;;
38465;SDS011;24244;51.950;5.902;2024-02-14T09:58:05;11.50;;;6.28;;
38465;SDS011;24244;51.950;5.902;2024-02-14T10:00:33;15.77;;;7.50;;
38465;SDS011;24244;51.950;5.902;2024-02-14T10:03:02;11.63;;;7.13;;
38465;SDS011;24244;51.950;5.902;2024-02-14T10:05:29;11.65;;;6.80;;
38465;SDS011;24244;51.950;5.902;2024-02-14T10:07:56;18.58;;;8.38;;
38465;SDS011;24244;51.950;5.902;2024-02-14T10:10:24;13.80;;;7.82;;
38465;SDS011;24244;51.950;5.902;2024-02-14T10:12:51;15.82;;;8.43;;
38465;SDS011;24244;51.950;5.902;2024-02-14T10:15:18;13.35;;;6.68;;
38465;SDS011;24244;51.950;5.902;2024-02-14T10:17:45;16.52;;;9.38;;
38465;SDS011;24244;51.950;5.902;2024-02-14T10:20:16;13.98;;;7.95;;
38465;SDS011;24244;51.950;5.902;2024-02-14T10:22:43;15.57;;;9.00;;
38465;SDS011;24244;51.950;5.902;2024-02-14T10:25:10;13.43;;;8.15;;
38465;SDS011;24244;51.950;5.902;2024-02-14T10:27:38;13.98;;;7.32;;
38465;SDS011;24244;51.950;5.902;2024-02-14T10:30:06;14.77;;;7.13;;
38465;SDS011;24244;51.950;5.902;2024-02-14T10:32:36;15.90;;;7.97;;
38465;SDS011;24244;51.950;5.902;2024-02-14T10:35:04;15.73;;;7.30;;
38465;SDS011;24244;51.950;5.902;2024-02-14T10:37:37;12.65;;;7.22;;
38465;SDS011;24244;51.950;5.902;2024-02-14T10:40:04;15.73;;;7.35;;
38465;SDS011;24244;51.950;5.902;2024-02-14T10:42:33;21.60;;;7.38;;
38465;SDS011;24244;51.950;5.902;2024-02-14T10:45:00;16.27;;;8.35;;
38465;SDS011;24244;51.950;5.902;2024-02-14T10:47:29;16.15;;;6.93;;
38465;SDS011;24244;51.950;5.902;2024-02-14T10:50:00;14.35;;;7.57;;
38465;SDS011;24244;51.950;5.902;2024-02-14T10:52:29;13.00;;;8.57;;
38465;SDS011;24244;51.950;5.902;2024-02-14T10:55:01;13.85;;;8.30;;
38465;SDS011;24244;51.950;5.902;2024-02-14T10:57:29;14.10;;;8.25;;
38465;SDS011;24244;51.950;5.902;2024-02-14T10:59:58;14.10;;;7.53;;
38465;SDS011;24244;51.950;5.902;2024-02-14T11:02:28;13.25;;;7.35;;
38465;SDS011;24244;51.950;5.902;2024-02-14T11:04:57;11.15;;;7.60;;
38465;SDS011;24244;51.950;5.902;2024-02-14T11:07:24;12.02;;;7.32;;
38465;SDS011;24244;51.950;5.902;2024-02-14T11:10:04;12.30;;;7.53;;
38465;SDS011;24244;51.950;5.902;2024-02-14T11:12:32;13.95;;;8.23;;
38465;SDS011;24244;51.950;5.902;2024-02-14T11:15:00;13.10;;;7.07;;
38465;SDS011;24244;51.950;5.902;2024-02-14T11:17:29;13.95;;;8.23;;
38465;SDS011;24244;51.950;5.902;2024-02-14T11:19:57;13.20;;;7.13;;
38465;SDS011;24244;51.950;5.902;2024-02-14T11:22:24;15.27;;;7.93;;
38465;SDS011;24244;51.950;5.902;2024-02-14T11:24:52;11.20;;;7.25;;
38465;SDS011;24244;51.950;5.902;2024-02-14T11:27:22;14.85;;;7.22;;
38465;SDS011;24244;51.950;5.902;2024-02-14T11:30:00;11.82;;;6.35;;
38465;SDS011;24244;51.950;5.902;2024-02-14T11:32:27;14.32;;;6.30;;
38465;SDS011;24244;51.950;5.902;2024-02-14T11:34:55;14.82;;;6.25;;
38465;SDS011;24244;51.950;5.902;2024-02-14T11:37:26;16.55;;;7.82;;
38465;SDS011;24244;51.950;5.902;2024-02-14T11:39:54;12.13;;;6.43;;
38465;SDS011;24244;51.950;5.902;2024-02-14T11:42:24;12.45;;;7.05;;
38465;SDS011;24244;51.950;5.902;2024-02-14T11:44:52;11.40;;;6.45;;
38465;SDS011;24244;51.950;5.902;2024-02-14T11:47:22;12.40;;;6.72;;
38465;SDS011;24244;51.950;5.902;2024-02-14T11:49:49;16.50;;;7.03;;
38465;SDS011;24244;51.950;5.902;2024-02-14T11:52:16;11.88;;;6.25;;
38465;SDS011;24244;51.950;5.902;2024-02-14T11:54:45;11.10;;;6.35;;
38465;SDS011;24244;51.950;5.902;2024-02-14T11:57:16;13.25;;;6.50;;
38465;SDS011;24244;51.950;5.902;2024-02-14T11:59:45;11.63;;;6.38;;
38465;SDS011;24244;51.950;5.902;2024-02-14T12:02:14;8.98;;;5.35;;
38465;SDS011;24244;51.950;5.902;2024-02-14T12:04:42;12.20;;;5.93;;
38465;SDS011;24244;51.950;5.902;2024-02-14T12:07:09;11.82;;;5.90;;
38465;SDS011;24244;51.950;5.902;2024-02-14T12:09:37;10.18;;;5.05;;
38465;SDS011;24244;51.950;5.902;2024-02-14T12:12:04;9.82;;;5.72;;
38465;SDS011;24244;51.950;5.902;2024-02-14T12:14:32;12.68;;;6.32;;
38465;SDS011;24244;51.950;5.902;2024-02-14T12:17:00;10.93;;;5.47;;
38465;SDS011;24244;51.950;5.902;2024-02-14T12:19:33;9.88;;;5.30;;
38465;SDS011;24244;51.950;5.902;2024-02-14T12:22:01;12.52;;;5.75;;
38465;SDS011;24244;51.950;5.902;2024-02-14T12:24:29;9.60;;;5.30;;
38465;SDS011;24244;51.950;5.902;2024-02-14T12:26:56;10.65;;;5.85;;
38465;SDS011;24244;51.950;5.902;2024-02-14T12:29:23;9.07;;;5.00;;
38465;SDS011;24244;51.950;5.902;2024-02-14T12:31:51;8.85;;;4.72;;
38465;SDS011;24244;51.950;5.902;2024-02-14T12:34:19;6.93;;;4.25;;
38465;SDS011;24244;51.950;5.902;2024-02-14T12:36:51;8.80;;;4.28;;
38465;SDS011;24244;51.950;5.902;2024-02-14T12:39:17;8.68;;;4.57;;
38465;SDS011;24244;51.950;5.902;2024-02-14T12:41:45;7.30;;;4.03;;
38465;SDS011;24244;51.950;5.902;2024-02-14T12:44:12;7.40;;;3.55;;
38465;SDS011;24244;51.950;5.902;2024-02-14T12:46:39;9.85;;;3.92;;
38465;SDS011;24244;51.950;5.902;2024-02-14T12:49:05;8.32;;;4.15;;
38465;SDS011;24244;51.950;5.902;2024-02-14T12:51:34;6.25;;;3.50;;
38465;SDS011;24244;51.950;5.902;2024-02-14T12:54:02;6.70;;;4.15;;
38465;SDS011;24244;51.950;5.902;2024-02-14T12:56:30;6.18;;;3.83;;
38465;SDS011;24244;51.950;5.902;2024-02-14T12:58:57;7.35;;;4.30;;
38465;SDS011;24244;51.950;5.902;2024-02-14T13:01:26;7.80;;;3.95;;
38465;SDS011;24244;51.950;5.902;2024-02-14T13:03:52;6.70;;;3.20;;
38465;SDS011;24244;51.950;5.902;2024-02-14T13:06:19;6.43;;;3.95;;
38465;SDS011;24244;51.950;5.902;2024-02-14T13:08:48;7.55;;;4.03;;
38465;SDS011;24244;51.950;5.902;2024-02-14T13:11:15;5.50;;;3.30;;
38465;SDS011;24244;51.950;5.902;2024-02-14T13:13:45;6.78;;;4.13;;
38465;SDS011;24244;51.950;5.902;2024-02-14T13:16:12;6.75;;;3.30;;
38465;SDS011;24244;51.950;5.902;2024-02-14T13:18:38;5.75;;;3.80;;
38465;SDS011;24244;51.950;5.902;2024-02-14T13:21:06;6.45;;;3.00;;
38465;SDS011;24244;51.950;5.902;2024-02-14T13:23:33;5.47;;;2.55;;
38465;SDS011;24244;51.950;5.902;2024-02-14T13:26:01;4.88;;;3.28;;
38465;SDS011;24244;51.950;5.902;2024-02-14T13:28:30;6.53;;;3.38;;
38465;SDS011;24244;51.950;5.902;2024-02-14T13:30:56;5.25;;;3.10;;
38465;SDS011;24244;51.950;5.902;2024-02-14T13:33:23;6.38;;;3.42;;
38465;SDS011;24244;51.950;5.902;2024-02-14T13:35:51;5.65;;;3.60;;
38465;SDS011;24244;51.950;5.902;2024-02-14T13:38:18;6.70;;;3.25;;
38465;SDS011;24244;51.950;5.902;2024-02-14T13:40:44;6.25;;;3.78;;
38465;SDS011;24244;51.950;5.902;2024-02-14T13:43:13;6.45;;;3.45;;
38465;SDS011;24244;51.950;5.902;2024-02-14T13:45:44;7.38;;;3.55;;
38465;SDS011;24244;51.950;5.902;2024-02-14T13:48:12;6.82;;;3.65;;
38465;SDS011;24244;51.950;5.902;2024-02-14T13:50:40;7.55;;;4.60;;
38465;SDS011;24244;51.950;5.902;2024-02-14T13:53:08;6.68;;;3.53;;
38465;SDS011;24244;51.950;5.902;2024-02-14T13:55:37;5.47;;;3.33;;
38465;SDS011;24244;51.950;5.902;2024-02-14T13:58:05;8.20;;;3.70;;
38465;SDS011;24244;51.950;5.902;2024-02-14T14:00:33;8.38;;;3.53;;
38465;SDS011;24244;51.950;5.902;2024-02-14T14:03:00;5.72;;;3.67;;
38465;SDS011;24244;51.950;5.902;2024-02-14T14:05:27;7.30;;;4.75;;
38465;SDS011;24244;51.950;5.902;2024-02-14T14:07:54;7.43;;;4.43;;
38465;SDS011;24244;51.950;5.902;2024-02-14T14:10:24;8.68;;;4.88;;
38465;SDS011;24244;51.950;5.902;2024-02-14T14:12:53;8.38;;;5.40;;
38465;SDS011;24244;51.950;5.902;2024-02-14T14:15:19;9.85;;;4.65;;
38465;SDS011;24244;51.950;5.902;2024-02-14T14:17:48;7.80;;;4.72;;
38465;SDS011;24244;51.950;5.902;2024-02-14T14:20:15;8.95;;;4.30;;
38465;SDS011;24244;51.950;5.902;2024-02-14T14:22:42;8.38;;;5.60;;
38465;SDS011;24244;51.950;5.902;2024-02-14T14:25:09;8.82;;;5.38;;
38465;SDS011;24244;51.950;5.902;2024-02-14T14:27:36;9.07;;;4.13;;
38465;SDS011;24244;51.950;5.902;2024-02-14T14:30:04;10.57;;;5.25;;
38465;SDS011;24244;51.950;5.902;2024-02-14T14:32:31;10.88;;;4.63;;
38465;SDS011;24244;51.950;5.902;2024-02-14T14:35:00;12.55;;;5.93;;
38465;SDS011;24244;51.950;5.902;2024-02-14T14:37:27;10.68;;;5.32;;
38465;SDS011;24244;51.950;5.902;2024-02-14T14:39:54;10.90;;;6.47;;
38465;SDS011;24244;51.950;5.902;2024-02-14T14:42:22;10.73;;;5.88;;
38465;SDS011;24244;51.950;5.902;2024-02-14T14:44:49;8.10;;;4.50;;
38465;SDS011;24244;51.950;5.902;2024-02-14T14:47:16;8.35;;;4.50;;